createdAt,value
2019-04-16T00:02:42.819Z,95.80
2019-04-16T00:05:14.171Z,95.70
2019-04-16T00:07:57.846Z,96.00
2019-04-16T00:10:29.225Z,95.70
2019-04-16T00:12:57.915Z,95.90
2019-04-16T00:15:24.738Z,96.10
2019-04-16T00:17:51.679Z,96.30
2019-04-16T00:20:18.884Z,96.10
2019-04-16T00:23:05.268Z,96.20
2019-04-16T00:25:32.400Z,96.20
2019-04-16T00:28:00.109Z,96.50
2019-04-16T00:30:27.507Z,96.30
2019-04-16T00:32:54.347Z,96.60
2019-04-16T00:35:21.075Z,96.30
2019-04-16T00:37:51.401Z,96.50
2019-04-16T00:40:16.592Z,96.60
2019-04-16T00:42:43.351Z,96.30
2019-04-16T00:45:10.397Z,96.60
2019-04-16T00:47:37.327Z,96.80
2019-04-16T00:50:05.422Z,96.40
2019-04-16T00:52:36.718Z,96.20
2019-04-16T00:55:01.819Z,96.60
2019-04-16T00:57:28.615Z,96.40
2019-04-16T00:59:56.505Z,96.50
2019-04-16T01:02:23.513Z,96.70
2019-04-16T01:04:50.246Z,96.50
2019-04-16T01:07:16.885Z,96.40
2019-04-16T01:09:43.738Z,96.40
2019-04-16T01:12:10.547Z,96.70
2019-04-16T01:14:37.200Z,96.40
2019-04-16T01:17:05.248Z,96.30
2019-04-16T01:19:33.988Z,96.20
2019-04-16T01:22:00.785Z,96.30
2019-04-16T01:24:28.286Z,95.90
2019-04-16T01:26:55.456Z,96.10
2019-04-16T01:29:23.786Z,96.10
2019-04-16T01:32:10.637Z,96.00
2019-04-16T01:34:55.470Z,96.20
2019-04-16T01:37:26.794Z,95.90
2019-04-16T01:39:56.444Z,95.80
2019-04-16T01:42:23.678Z,95.90
2019-04-16T01:44:51.024Z,96.10
2019-04-16T01:47:21.008Z,96.10
2019-04-16T01:49:47.780Z,96.50
2019-04-16T01:52:18.684Z,96.10
2019-04-16T01:54:43.239Z,96.00
2019-04-16T01:57:10.073Z,96.00
2019-04-16T01:59:36.685Z,95.90
2019-04-16T02:02:03.579Z,96.00
2019-04-16T02:04:31.306Z,96.00
2019-04-16T02:06:58.364Z,96.20
2019-04-16T02:09:25.194Z,96.40
2019-04-16T02:11:51.944Z,96.30
2019-04-16T02:14:22.125Z,96.40
2019-04-16T02:16:47.596Z,96.20
2019-04-16T02:19:14.295Z,96.20
2019-04-16T02:21:41.451Z,96.20
2019-04-16T02:24:08.940Z,96.20
2019-04-16T02:26:35.584Z,96.40
2019-04-16T02:29:02.335Z,96.60
2019-04-16T02:31:29.006Z,96.80
2019-04-16T02:33:56.563Z,97.10
2019-04-16T02:36:23.271Z,97.50
2019-04-16T02:38:53.242Z,97.60
2019-04-16T02:41:22.248Z,97.80
2019-04-16T02:43:47.569Z,97.70
2019-04-16T02:46:14.546Z,97.70
2019-04-16T02:48:41.315Z,98.20
2019-04-16T02:51:09.876Z,97.90
2019-04-16T02:53:50.335Z,98.10
2019-04-16T02:56:27.949Z,98.30
2019-04-16T02:58:59.211Z,98.10
2019-04-16T03:01:27.963Z,98.40
2019-04-16T03:03:59.511Z,98.30
2019-04-16T03:06:26.285Z,98.10
2019-04-16T03:08:53.547Z,97.90
2019-04-16T03:11:20.367Z,98.00
2019-04-16T03:13:47.471Z,97.80
2019-04-16T03:16:37.705Z,97.70
2019-04-16T03:19:03.918Z,97.70
2019-04-16T03:21:30.553Z,97.60
2019-04-16T03:23:57.574Z,97.70
2019-04-16T03:26:25.611Z,98.00
2019-04-16T03:28:55.608Z,97.90
2019-04-16T03:31:23.601Z,98.50
2019-04-16T03:33:51.135Z,98.80
2019-04-16T03:36:18.119Z,98.90
2019-04-16T03:38:44.891Z,98.90
2019-04-16T03:41:11.670Z,99.10
2019-04-16T03:43:38.393Z,98.90
2019-04-16T03:46:05.129Z,98.80
2019-04-16T03:48:31.795Z,98.90
2019-04-16T03:51:00.514Z,98.60
2019-04-16T03:53:30.793Z,98.90
2019-04-16T03:55:58.507Z,98.80
2019-04-16T03:58:25.995Z,98.80
2019-04-16T04:00:52.967Z,98.90
2019-04-16T04:03:19.715Z,99.10
2019-04-16T04:05:56.939Z,98.80
2019-04-16T04:08:24.497Z,99.20
2019-04-16T04:10:51.385Z,99.10
2019-04-16T04:13:18.894Z,99.30
2019-04-16T04:15:46.049Z,98.90
2019-04-16T04:18:12.927Z,99.30
2019-04-16T04:20:40.169Z,99.00
2019-04-16T04:23:06.951Z,99.20
2019-04-16T04:25:36.263Z,98.80
2019-04-16T04:28:02.155Z,99.10
2019-04-16T04:30:29.681Z,98.70
2019-04-16T04:32:56.401Z,98.50
2019-04-16T04:35:24.261Z,98.70
2019-04-16T04:37:50.869Z,98.50
2019-04-16T04:40:17.726Z,98.50
2019-04-16T04:42:44.795Z,99.10
2019-04-16T04:45:11.814Z,99.10
2019-04-16T04:47:38.698Z,99.00
2019-04-16T04:50:05.834Z,99.00
2019-04-16T04:52:32.579Z,99.20
2019-04-16T04:54:59.481Z,99.30
2019-04-16T04:57:28.429Z,99.00
2019-04-16T04:59:55.253Z,99.10
2019-04-16T05:02:21.979Z,99.00
2019-04-16T05:04:52.440Z,98.80
2019-04-16T05:07:20.224Z,98.80
2019-04-16T05:09:46.933Z,98.60
2019-04-16T05:12:13.593Z,98.70
2019-04-16T05:14:42.174Z,98.90
2019-04-16T05:17:08.983Z,98.50
2019-04-16T05:19:35.757Z,98.40
2019-04-16T05:22:02.523Z,98.30
2019-04-16T05:24:29.978Z,98.10
2019-04-16T05:26:56.906Z,98.10
2019-04-16T05:29:23.558Z,98.10
2019-04-16T05:31:54.488Z,98.40
2019-04-16T05:34:21.604Z,98.30
2019-04-16T05:36:48.375Z,98.00
2019-04-16T05:39:15.036Z,98.00
2019-04-16T05:41:41.729Z,98.00
2019-04-16T05:44:08.393Z,97.90
2019-04-16T05:46:35.248Z,97.90
2019-04-16T05:49:02.120Z,97.70
2019-04-16T05:51:31.494Z,97.50
2019-04-16T05:54:02.779Z,97.40
2019-04-16T05:56:37.686Z,97.20
2019-04-16T05:59:04.437Z,97.00
2019-04-16T06:01:36.175Z,96.80
2019-04-16T06:04:03.244Z,96.40
2019-04-16T06:06:31.853Z,96.00
2019-04-16T06:08:58.436Z,95.60
2019-04-16T06:11:29.614Z,95.60
2019-04-16T06:14:04.830Z,95.10
2019-04-16T06:16:33.644Z,95.00
2019-04-16T06:19:20.848Z,94.90
2019-04-16T06:22:04.704Z,94.90
2019-04-16T06:24:50.376Z,94.70
2019-04-16T06:27:22.350Z,94.90
2019-04-16T06:29:50.953Z,94.70
2019-04-16T06:32:19.518Z,94.30
2019-04-16T06:34:53.813Z,94.00
2019-04-16T06:37:26.797Z,93.30
2019-04-16T06:40:00.704Z,92.80
2019-04-16T06:42:38.482Z,92.50
2019-04-16T06:45:07.812Z,92.30
2019-04-16T06:47:45.599Z,92.00
2019-04-16T06:50:30.612Z,91.60
2019-04-16T06:53:04.811Z,91.20
2019-04-16T06:55:42.999Z,91.10
2019-04-16T06:58:21.015Z,90.50
2019-04-16T07:01:05.905Z,90.30
2019-04-16T07:03:38.536Z,90.10
2019-04-16T07:06:22.519Z,89.20
2019-04-16T07:08:52.416Z,88.20
2019-04-16T07:11:21.084Z,87.70
2019-04-16T07:13:47.749Z,86.60
2019-04-16T07:16:14.483Z,85.10
2019-04-16T07:18:41.108Z,85.20
2019-04-16T07:21:07.748Z,84.30
2019-04-16T07:23:34.757Z,82.60
2019-04-16T07:26:03.812Z,81.50
2019-04-16T07:28:34.999Z,81.00
2019-04-16T07:31:14.885Z,80.80
2019-04-16T07:33:58.330Z,79.00
2019-04-16T07:36:43.696Z,78.70
2019-04-16T07:39:30.055Z,78.30
2019-04-16T07:42:10.339Z,78.30
2019-04-16T07:44:36.414Z,78.00
2019-04-16T07:47:06.437Z,77.00
2019-04-16T07:49:38.242Z,76.10
2019-04-16T07:52:25.150Z,75.90
2019-04-16T07:54:56.284Z,76.10
2019-04-16T07:57:24.456Z,75.80
2019-04-16T07:59:51.346Z,75.30
2019-04-16T08:02:21.605Z,76.40
2019-04-16T08:04:46.715Z,74.20
2019-04-16T08:07:13.490Z,73.30
2019-04-16T08:09:40.168Z,72.90
2019-04-16T08:28:48.047Z,65.80
2019-04-16T08:31:16.574Z,65.30
2019-04-16T08:33:43.418Z,65.20
2019-04-16T08:36:10.246Z,64.30
2019-04-16T08:38:36.877Z,64.50
2019-04-16T08:41:03.637Z,63.30
2019-04-16T08:43:30.484Z,62.40
2019-04-16T08:45:57.234Z,61.90
2019-04-16T08:48:23.882Z,62.30
2019-04-16T08:50:50.514Z,62.20
2019-04-16T08:53:17.444Z,61.60
2019-04-16T08:55:44.294Z,60.10
2019-04-16T08:58:12.788Z,59.70
2019-04-16T09:00:39.959Z,59.50
2019-04-16T09:03:06.791Z,59.40
2019-04-16T09:05:33.506Z,59.30
2019-04-16T09:08:12.227Z,59.00
2019-04-16T09:10:31.147Z,59.10
2019-04-16T09:13:03.790Z,58.00
2019-04-16T09:15:30.248Z,59.30
2019-04-16T09:18:13.749Z,58.70
2019-04-16T09:20:41.979Z,58.60
2019-04-16T09:23:08.875Z,58.60
2019-04-16T09:25:37.573Z,58.50
2019-04-16T09:28:26.060Z,58.30
2019-04-16T09:31:12.986Z,58.00
2019-04-16T09:33:55.708Z,58.30
2019-04-16T09:36:40.677Z,58.70
2019-04-16T09:39:12.339Z,58.70
2019-04-16T09:41:40.883Z,58.20
2019-04-16T09:44:07.519Z,58.50
2019-04-16T09:46:50.499Z,57.60
2019-04-16T09:49:04.855Z,57.50
2019-04-16T09:51:31.471Z,58.20
2019-04-16T09:53:58.235Z,57.40
2019-04-16T09:56:30.277Z,57.10
2019-04-16T09:59:00.671Z,56.70
2019-04-16T10:01:35.000Z,56.60
2019-04-16T10:04:03.730Z,56.50
2019-04-16T10:06:30.605Z,57.60
2019-04-16T10:08:57.272Z,57.90
2019-04-16T10:11:24.026Z,58.00
2019-04-16T10:13:50.810Z,58.20
2019-04-16T10:16:19.627Z,57.70
2019-04-16T10:18:46.244Z,57.70
2019-04-16T10:21:13.005Z,58.90
2019-04-16T10:24:00.031Z,57.00
2019-04-16T10:26:26.834Z,57.80
2019-04-16T10:28:54.775Z,57.60
2019-04-16T10:31:23.651Z,57.60
2019-04-16T10:33:50.278Z,57.90
2019-04-16T10:36:16.943Z,58.30
2019-04-16T10:38:51.408Z,58.70
2019-04-16T10:41:25.717Z,58.40
2019-04-16T10:43:54.499Z,59.00
2019-04-16T10:46:41.199Z,58.50
2019-04-16T10:49:12.532Z,58.40
2019-04-16T10:51:41.185Z,58.90
2019-04-16T10:54:18.760Z,61.40
2019-04-16T10:56:47.285Z,61.30
2019-04-16T10:59:19.117Z,61.90
2019-04-16T11:02:15.885Z,62.10
2019-04-16T11:05:02.988Z,60.70
2019-04-16T11:07:32.053Z,61.10
2019-04-16T11:09:58.943Z,59.90
2019-04-16T11:12:25.806Z,59.00
2019-04-16T11:14:52.807Z,59.20
2019-04-16T11:17:21.350Z,57.90
2019-04-16T11:19:52.637Z,57.20
2019-04-16T11:22:16.711Z,56.30
2019-04-16T11:24:43.584Z,56.70
2019-04-16T11:27:10.493Z,56.70
2019-04-16T11:29:38.361Z,57.00
2019-04-16T11:32:05.836Z,56.70
2019-04-16T11:34:32.559Z,57.00
2019-04-16T11:36:59.217Z,56.80
2019-04-16T11:39:25.890Z,57.60
2019-04-16T11:41:52.657Z,57.80
2019-04-16T11:44:19.403Z,56.90
2019-04-16T11:46:46.370Z,56.60
2019-04-16T11:49:13.180Z,57.10
2019-04-16T11:51:39.920Z,57.80
2019-04-16T11:54:06.503Z,58.80
2019-04-16T11:56:33.169Z,58.80
2019-04-16T11:59:00.328Z,58.70
2019-04-16T12:01:29.136Z,59.00
2019-04-16T12:04:17.002Z,59.60
2019-04-16T12:06:45.953Z,60.00
2019-04-16T12:09:14.876Z,58.80
2019-04-16T12:11:46.903Z,58.40
2019-04-16T12:14:34.637Z,57.90
2019-04-16T12:17:19.318Z,57.70
2019-04-16T12:19:53.584Z,58.20
2019-04-16T12:22:38.790Z,57.40
2019-04-16T12:25:13.762Z,55.60
2019-04-16T12:27:42.961Z,55.20
2019-04-16T12:30:12.090Z,57.70
2019-04-16T12:32:40.779Z,59.90
2019-04-16T12:35:18.410Z,60.20
2019-04-16T12:38:03.904Z,59.80
2019-04-16T12:40:44.550Z,58.80
2019-04-16T12:43:15.977Z,58.30
2019-04-16T12:45:53.181Z,59.40
2019-04-16T12:48:49.994Z,60.50
2019-04-16T12:51:18.582Z,59.40
2019-04-16T12:53:56.111Z,60.20
2019-04-16T12:56:41.951Z,60.30
2019-04-16T12:59:23.181Z,60.90
2019-04-16T13:01:52.038Z,62.00
2019-04-16T13:04:20.718Z,63.30
2019-04-16T13:06:52.419Z,64.50
2019-04-16T13:09:27.979Z,64.50
2019-04-16T13:11:59.259Z,64.50
2019-04-16T13:14:30.720Z,64.20
2019-04-16T13:17:06.073Z,64.70
2019-04-16T13:19:39.077Z,64.60
2019-04-16T13:22:08.760Z,64.80
2019-04-16T13:24:40.329Z,65.60
2019-04-16T13:27:08.903Z,66.20
2019-04-16T13:29:35.562Z,66.90
2019-04-16T13:32:02.453Z,67.00
2019-04-16T13:34:29.516Z,67.40
2019-04-16T13:36:59.371Z,67.70
2019-04-16T13:39:32.650Z,68.40
2019-04-16T13:41:59.646Z,68.30
2019-04-16T13:44:37.611Z,68.30
2019-04-16T13:47:05.980Z,68.30
2019-04-16T13:49:51.400Z,68.20
2019-04-16T13:52:20.410Z,68.30
2019-04-16T13:54:51.590Z,68.10
2019-04-16T13:57:23.246Z,68.40
2019-04-16T14:00:04.333Z,68.90
2019-04-16T14:02:41.656Z,69.60
2019-04-16T14:05:10.852Z,70.30
2019-04-16T14:07:37.333Z,70.50
2019-04-16T14:10:05.419Z,71.40
2019-04-16T14:12:41.680Z,71.20
2019-04-16T14:15:00.885Z,71.90
2019-04-16T14:17:28.477Z,74.10
2019-04-16T14:19:55.220Z,76.70
2019-04-16T14:22:24.621Z,77.90
2019-04-16T14:24:53.218Z,78.80
2019-04-16T14:27:19.932Z,78.80
2019-04-16T14:29:46.672Z,78.00
2019-04-16T14:32:13.509Z,78.30
2019-04-16T14:34:49.588Z,78.40
2019-04-16T14:37:16.614Z,78.90
2019-04-16T14:39:51.649Z,79.30
2019-04-16T14:42:19.159Z,80.00
2019-04-16T14:45:07.496Z,80.50
2019-04-16T14:47:37.849Z,81.20
2019-04-16T14:50:04.914Z,80.00
2019-04-16T14:52:31.550Z,81.10
2019-04-16T14:55:00.997Z,82.30
2019-04-16T14:57:28.196Z,82.00
2019-04-16T14:59:59.857Z,81.80
2019-04-16T15:02:45.559Z,81.90
2019-04-16T15:05:17.130Z,81.20
2019-04-16T15:07:48.645Z,81.30
2019-04-16T15:10:20.218Z,81.50
2019-04-16T15:12:49.076Z,81.70
2019-04-16T15:15:21.391Z,82.00
2019-04-16T15:17:50.109Z,82.00
2019-04-16T15:20:24.544Z,82.60
2019-04-16T15:23:09.778Z,83.20
2019-04-16T15:25:55.130Z,83.10
2019-04-16T15:28:26.472Z,83.00
2019-04-16T15:31:06.043Z,83.70
2019-04-16T15:33:35.694Z,83.80
2019-04-16T15:36:08.103Z,84.00
2019-04-16T15:38:44.165Z,83.40
2019-04-16T15:41:13.377Z,83.30
2019-04-16T15:43:56.369Z,82.60
2019-04-16T15:46:28.077Z,82.80
2019-04-16T15:49:05.554Z,82.90
2019-04-16T15:51:37.203Z,84.30
2019-04-16T15:54:08.665Z,83.30
2019-04-16T15:56:49.660Z,84.20
2019-04-16T15:59:18.429Z,84.30
2019-04-16T16:02:03.702Z,84.70
2019-04-16T16:04:35.417Z,84.40
2019-04-16T16:07:07.793Z,84.20
2019-04-16T16:09:37.526Z,84.80
2019-04-16T16:12:10.285Z,85.20
2019-04-16T16:14:38.722Z,84.80
2019-04-16T16:17:04.911Z,85.10
2019-04-16T16:19:31.815Z,85.70
2019-04-16T16:22:00.419Z,86.00
2019-04-16T16:24:28.975Z,85.90
2019-04-16T16:26:55.607Z,86.60
2019-04-16T16:29:22.378Z,85.90
2019-04-16T16:31:52.077Z,85.90
2019-04-16T16:34:19.473Z,85.60
2019-04-16T16:36:46.230Z,85.70
2019-04-16T16:39:14.176Z,85.80
2019-04-16T16:41:46.227Z,86.00
2019-04-16T16:44:12.286Z,89.50
2019-04-16T16:46:58.489Z,90.70
2019-04-16T16:49:25.645Z,90.90
2019-04-16T16:52:09.567Z,91.10
2019-04-16T16:54:36.427Z,91.50
2019-04-16T16:57:08.276Z,91.90
2019-04-16T16:59:52.320Z,91.80
2019-04-16T17:02:22.822Z,92.30
2019-04-16T17:04:57.590Z,92.80
2019-04-16T17:07:24.304Z,93.00
2019-04-16T17:09:52.207Z,93.20
2019-04-16T17:12:18.975Z,93.30
2019-04-16T17:14:45.779Z,93.80
2019-04-16T17:17:14.908Z,93.90
2019-04-16T17:19:41.243Z,93.90
2019-04-16T17:22:07.941Z,94.20
2019-04-16T17:24:34.803Z,94.70
2019-04-16T17:27:01.549Z,94.80
2019-04-16T17:29:29.389Z,94.90
2019-04-16T17:31:56.231Z,95.00
2019-04-16T17:34:23.076Z,95.00
2019-04-16T17:36:50.273Z,95.50
2019-04-16T17:39:32.550Z,95.50
2019-04-16T17:42:07.327Z,95.80
2019-04-16T17:44:55.916Z,96.00
2019-04-16T17:47:32.339Z,96.20
2019-04-16T17:50:17.329Z,96.40
2019-04-16T17:52:45.987Z,96.30
2019-04-16T17:55:14.656Z,96.50
2019-04-16T17:57:49.397Z,96.70
2019-04-16T18:00:23.946Z,97.10
2019-04-16T18:03:09.246Z,97.40
2019-04-16T18:05:46.955Z,97.30
2019-04-16T18:08:27.501Z,97.40
2019-04-16T18:11:02.081Z,97.40
2019-04-16T18:13:32.260Z,97.40
2019-04-16T18:16:06.947Z,97.50
2019-04-16T18:18:36.737Z,97.90
2019-04-16T18:21:20.647Z,97.90
2019-04-16T18:23:58.471Z,98.10
2019-04-16T18:26:39.167Z,97.80
2019-04-16T18:29:07.951Z,98.30
2019-04-16T18:31:39.400Z,98.00
2019-04-16T18:34:10.667Z,98.30
2019-04-16T18:37:06.049Z,98.40
2019-04-16T18:39:37.438Z,98.30
2019-04-16T18:42:14.153Z,98.30
2019-04-16T18:44:59.410Z,98.10
2019-04-16T18:47:45.190Z,98.00
2019-04-16T18:50:22.520Z,98.20
2019-04-16T18:53:00.359Z,98.40
2019-04-16T18:55:29.740Z,98.40
2019-04-16T18:57:58.265Z,98.30
2019-04-16T19:00:37.242Z,98.50
2019-04-16T19:03:04.455Z,98.40
2019-04-16T19:05:31.446Z,98.30
2019-04-16T19:08:00.168Z,98.40
2019-04-16T19:10:27.126Z,98.60
2019-04-16T19:12:54.230Z,98.70
2019-04-16T19:15:21.025Z,98.70
2019-04-16T19:17:47.693Z,98.90
2019-04-16T19:20:26.707Z,99.00
2019-04-16T19:22:53.560Z,99.20
2019-04-16T19:25:20.345Z,99.30
2019-04-16T19:27:49.037Z,99.30
2019-04-16T19:30:17.180Z,99.40
2019-04-16T19:32:44.080Z,99.40
2019-04-16T19:35:16.911Z,99.30
2019-04-16T19:37:39.624Z,99.50
2019-04-16T19:40:06.896Z,99.80
2019-04-16T19:42:33.822Z,99.90
2019-04-16T19:45:02.444Z,99.90
2019-04-16T19:47:29.328Z,99.90
2019-04-16T19:49:56.217Z,99.90
2019-04-16T19:52:23.668Z,99.90
2019-04-16T19:54:51.644Z,99.90
2019-04-16T19:57:18.544Z,99.90
2019-04-16T19:59:46.633Z,99.90
2019-04-16T20:02:17.625Z,99.90
2019-04-16T20:04:45.377Z,99.90
2019-04-16T20:07:12.708Z,99.90
2019-04-16T20:09:41.637Z,99.90
2019-04-16T20:12:08.684Z,99.90
2019-04-16T20:14:36.479Z,99.90
2019-04-16T20:17:05.254Z,99.90
2019-04-16T20:19:32.136Z,99.90
2019-04-16T20:21:59.166Z,99.90
2019-04-16T20:24:27.159Z,99.90
2019-04-16T20:26:53.894Z,99.90
2019-04-16T20:29:20.610Z,99.90
2019-04-16T20:31:49.095Z,99.90
2019-04-16T20:34:18.033Z,99.90
2019-04-16T20:36:44.726Z,99.90
2019-04-16T20:39:11.354Z,99.90
2019-04-16T20:41:38.536Z,99.90
2019-04-16T20:44:08.545Z,99.90
2019-04-16T20:46:33.891Z,99.90
2019-04-16T20:49:08.771Z,99.90
2019-04-16T20:51:29.128Z,99.90
2019-04-16T20:53:57.704Z,99.90
2019-04-16T20:56:24.459Z,99.90
2019-04-16T20:58:51.131Z,99.90
2019-04-16T21:01:32.748Z,99.90
2019-04-16T21:04:04.681Z,99.90
2019-04-16T21:06:26.534Z,99.90
2019-04-16T21:08:56.080Z,99.90
2019-04-16T21:11:22.832Z,99.90
2019-04-16T21:13:51.356Z,99.90
2019-04-16T21:16:17.998Z,99.90
2019-04-16T21:18:44.788Z,99.90
2019-04-16T21:21:11.713Z,99.90
2019-04-16T21:23:38.368Z,99.90
2019-04-16T21:26:04.988Z,99.90
2019-04-16T21:28:42.507Z,99.90
2019-04-16T21:31:12.987Z,99.90
2019-04-16T21:33:41.607Z,99.90
2019-04-16T21:36:10.225Z,99.90
2019-04-16T21:38:42.311Z,99.90
2019-04-16T21:41:10.055Z,99.90
2019-04-16T21:43:39.590Z,99.90
2019-04-16T21:46:07.196Z,99.90
2019-04-16T21:48:35.761Z,99.90
2019-04-16T21:51:02.536Z,99.90
2019-04-16T21:53:29.346Z,99.90
2019-04-16T21:55:56.074Z,99.90
2019-04-16T21:58:22.737Z,99.90
2019-04-16T22:00:51.574Z,99.90
2019-04-16T22:03:23.546Z,99.90
2019-04-16T22:05:50.243Z,99.90
2019-04-16T22:08:17.116Z,99.90
2019-04-16T22:10:46.568Z,99.90
2019-04-16T22:13:12.382Z,99.90
2019-04-16T22:15:39.446Z,99.90
2019-04-16T22:18:08.784Z,99.90
2019-04-16T22:20:35.796Z,99.90
2019-04-16T22:23:03.332Z,99.90
2019-04-16T22:25:29.927Z,99.90
2019-04-16T22:27:56.620Z,99.90
2019-04-16T22:30:23.446Z,99.90
2019-04-16T22:32:50.181Z,99.90
2019-04-16T22:35:16.785Z,99.90
2019-04-16T22:37:43.314Z,99.90
2019-04-16T22:40:30.355Z,99.90
2019-04-16T22:43:06.313Z,99.90
2019-04-16T22:45:35.063Z,99.90
2019-04-16T22:48:01.790Z,99.90
2019-04-16T22:50:28.612Z,99.90
2019-04-16T22:52:55.235Z,99.90
2019-04-16T22:55:24.915Z,99.90
2019-04-16T22:57:51.544Z,99.90
2019-04-16T23:00:35.643Z,99.90
2019-04-16T23:03:03.766Z,99.90
2019-04-16T23:05:30.807Z,99.90
2019-04-16T23:07:58.658Z,99.90
2019-04-16T23:10:25.352Z,99.90
2019-04-16T23:12:52.058Z,99.90
2019-04-16T23:15:18.950Z,99.90
2019-04-16T23:17:46.701Z,99.90
2019-04-16T23:20:28.155Z,99.90
2019-04-16T23:22:43.613Z,99.90
2019-04-16T23:25:11.935Z,99.90
2019-04-16T23:27:38.841Z,99.90
2019-04-16T23:30:05.688Z,99.90
2019-04-16T23:32:32.438Z,99.90
2019-04-16T23:34:59.315Z,99.90
2019-04-16T23:37:26.002Z,99.90
2019-04-16T23:39:52.626Z,99.90
2019-04-16T23:42:19.820Z,99.90
2019-04-16T23:44:51.264Z,99.90
2019-04-16T23:47:31.910Z,99.90
2019-04-16T23:50:03.283Z,99.90
2019-04-16T23:52:44.088Z,99.90
2019-04-16T23:55:16.332Z,99.90
2019-04-16T23:57:59.772Z,99.90
